sensor_id;sensor_type;location;lat;lon;timestamp;temperature;humidity
67641;SHT31;54434;50.096;20.082;2022-10-31T00:00:21;9.57;88.91
67641;SHT31;54434;50.096;20.082;2022-10-31T00:03:18;9.55;88.97
67641;SHT31;54434;50.096;20.082;2022-10-31T00:05:54;9.51;88.90
67641;SHT31;54434;50.096;20.082;2022-10-31T00:08:29;9.47;88.89
67641;SHT31;54434;50.096;20.082;2022-10-31T00:11:09;9.40;88.73
67641;SHT31;54434;50.096;20.082;2022-10-31T00:13:46;9.33;88.69
67641;SHT31;54434;50.096;20.082;2022-10-31T00:16:22;9.34;88.87
67641;SHT31;54434;50.096;20.082;2022-10-31T00:19:00;9.35;89.00
67641;SHT31;54434;50.096;20.082;2022-10-31T00:21:39;9.32;89.01
67641;SHT31;54434;50.096;20.082;2022-10-31T00:24:15;9.29;88.97
67641;SHT31;54434;50.096;20.082;2022-10-31T00:26:51;9.26;88.94
67641;SHT31;54434;50.096;20.082;2022-10-31T00:29:27;9.23;88.96
67641;SHT31;54434;50.096;20.082;2022-10-31T00:32:04;9.20;88.96
67641;SHT31;54434;50.096;20.082;2022-10-31T00:34:40;9.16;88.82
67641;SHT31;54434;50.096;20.082;2022-10-31T00:37:16;9.12;88.80
67641;SHT31;54434;50.096;20.082;2022-10-31T00:39:52;9.09;88.80
67641;SHT31;54434;50.096;20.082;2022-10-31T00:42:28;9.06;88.80
67641;SHT31;54434;50.096;20.082;2022-10-31T00:45:04;9.04;88.85
67641;SHT31;54434;50.096;20.082;2022-10-31T00:47:42;9.03;88.80
67641;SHT31;54434;50.096;20.082;2022-10-31T00:50:18;8.99;88.79
67641;SHT31;54434;50.096;20.082;2022-10-31T00:52:54;8.97;88.80
67641;SHT31;54434;50.096;20.082;2022-10-31T00:55:30;8.94;88.80
67641;SHT31;54434;50.096;20.082;2022-10-31T00:58:06;8.91;88.74
67641;SHT31;54434;50.096;20.082;2022-10-31T01:00:42;8.88;88.61
67641;SHT31;54434;50.096;20.082;2022-10-31T01:03:28;8.86;88.67
67641;SHT31;54434;50.096;20.082;2022-10-31T01:06:08;8.86;88.82
67641;SHT31;54434;50.096;20.082;2022-10-31T01:08:46;8.84;88.90
67641;SHT31;54434;50.096;20.082;2022-10-31T01:11:23;8.82;88.97
67641;SHT31;54434;50.096;20.082;2022-10-31T01:13:59;8.82;89.10
67641;SHT31;54434;50.096;20.082;2022-10-31T01:16:35;8.82;89.20
67641;SHT31;54434;50.096;20.082;2022-10-31T01:19:11;8.80;89.23
67641;SHT31;54434;50.096;20.082;2022-10-31T01:21:47;8.78;89.19
67641;SHT31;54434;50.096;20.082;2022-10-31T01:24:26;8.73;89.13
67641;SHT31;54434;50.096;20.082;2022-10-31T01:27:02;8.73;89.30
67641;SHT31;54434;50.096;20.082;2022-10-31T01:29:38;8.72;89.37
67641;SHT31;54434;50.096;20.082;2022-10-31T01:32:14;8.71;89.35
67641;SHT31;54434;50.096;20.082;2022-10-31T01:34:50;8.67;89.30
67641;SHT31;54434;50.096;20.082;2022-10-31T01:37:26;8.67;89.40
67641;SHT31;54434;50.096;20.082;2022-10-31T01:40:03;8.66;89.34
67641;SHT31;54434;50.096;20.082;2022-10-31T01:42:42;8.64;89.33
67641;SHT31;54434;50.096;20.082;2022-10-31T01:45:17;8.62;89.35
67641;SHT31;54434;50.096;20.082;2022-10-31T01:47:54;8.60;89.40
67641;SHT31;54434;50.096;20.082;2022-10-31T01:50:33;8.59;89.49
67641;SHT31;54434;50.096;20.082;2022-10-31T01:53:13;8.59;89.49
67641;SHT31;54434;50.096;20.082;2022-10-31T01:55:57;8.57;89.53
67641;SHT31;54434;50.096;20.082;2022-10-31T01:58:35;8.57;89.60
67641;SHT31;54434;50.096;20.082;2022-10-31T02:01:11;8.57;89.67
67641;SHT31;54434;50.096;20.082;2022-10-31T02:03:49;8.55;89.63
67641;SHT31;54434;50.096;20.082;2022-10-31T02:06:35;8.58;89.83
67641;SHT31;54434;50.096;20.082;2022-10-31T02:09:17;8.59;89.99
67641;SHT31;54434;50.096;20.082;2022-10-31T02:11:56;8.57;89.95
67641;SHT31;54434;50.096;20.082;2022-10-31T02:14:34;8.56;90.00
67641;SHT31;54434;50.096;20.082;2022-10-31T02:17:11;8.59;90.21
67641;SHT31;54434;50.096;20.082;2022-10-31T02:19:51;8.63;90.41
67641;SHT31;54434;50.096;20.082;2022-10-31T02:22:40;8.65;90.49
67641;SHT31;54434;50.096;20.082;2022-10-31T02:25:56;8.65;90.43
67641;SHT31;54434;50.096;20.082;2022-10-31T02:29:10;8.59;90.16
67641;SHT31;54434;50.096;20.082;2022-10-31T02:32:29;8.55;90.15
67641;SHT31;54434;50.096;20.082;2022-10-31T02:35:39;8.60;90.45
67641;SHT31;54434;50.096;20.082;2022-10-31T02:38:34;8.65;90.66
67641;SHT31;54434;50.096;20.082;2022-10-31T02:41:37;8.69;90.77
67641;SHT31;54434;50.096;20.082;2022-10-31T02:44:25;8.73;90.89
67641;SHT31;54434;50.096;20.082;2022-10-31T02:47:11;8.76;90.97
67641;SHT31;54434;50.096;20.082;2022-10-31T02:49:53;8.80;91.09
67641;SHT31;54434;50.096;20.082;2022-10-31T02:52:35;8.84;91.15
67641;SHT31;54434;50.096;20.082;2022-10-31T02:55:39;8.84;91.13
67641;SHT31;54434;50.096;20.082;2022-10-31T02:58:35;8.85;91.10
67641;SHT31;54434;50.096;20.082;2022-10-31T03:01:41;8.84;91.10
67641;SHT31;54434;50.096;20.082;2022-10-31T03:08:10;8.86;91.11
67641;SHT31;54434;50.096;20.082;2022-10-31T03:10:56;8.85;91.05
67641;SHT31;54434;50.096;20.082;2022-10-31T03:13:38;8.84;90.98
67641;SHT31;54434;50.096;20.082;2022-10-31T03:16:28;8.83;90.92
67641;SHT31;54434;50.096;20.082;2022-10-31T03:19:18;8.84;90.92
67641;SHT31;54434;50.096;20.082;2022-10-31T03:22:02;8.84;90.91
67641;SHT31;54434;50.096;20.082;2022-10-31T03:24:48;8.87;90.95
67641;SHT31;54434;50.096;20.082;2022-10-31T03:27:27;8.90;90.99
67641;SHT31;54434;50.096;20.082;2022-10-31T03:30:09;8.94;91.01
67641;SHT31;54434;50.096;20.082;2022-10-31T03:32:57;8.94;90.89
67641;SHT31;54434;50.096;20.082;2022-10-31T03:35:42;8.95;90.89
67641;SHT31;54434;50.096;20.082;2022-10-31T03:38:23;9.00;90.98
67641;SHT31;54434;50.096;20.082;2022-10-31T03:41:01;9.05;91.06
67641;SHT31;54434;50.096;20.082;2022-10-31T03:43:46;9.10;91.18
67641;SHT31;54434;50.096;20.082;2022-10-31T03:46:30;9.15;91.21
67641;SHT31;54434;50.096;20.082;2022-10-31T03:49:06;9.17;91.18
67641;SHT31;54434;50.096;20.082;2022-10-31T03:51:44;9.19;91.18
67641;SHT31;54434;50.096;20.082;2022-10-31T03:54:30;9.21;91.19
67641;SHT31;54434;50.096;20.082;2022-10-31T03:57:16;9.23;91.15
67641;SHT31;54434;50.096;20.082;2022-10-31T04:00:09;9.23;91.09
67641;SHT31;54434;50.096;20.082;2022-10-31T04:02:50;9.22;91.05
67641;SHT31;54434;50.096;20.082;2022-10-31T04:05:34;9.22;91.02
67641;SHT31;54434;50.096;20.082;2022-10-31T04:08:14;9.24;91.06
67641;SHT31;54434;50.096;20.082;2022-10-31T04:10:57;9.25;91.04
67641;SHT31;54434;50.096;20.082;2022-10-31T04:13:35;9.25;91.00
67641;SHT31;54434;50.096;20.082;2022-10-31T04:16:18;9.24;90.99
67641;SHT31;54434;50.096;20.082;2022-10-31T04:18:55;9.24;91.02
67641;SHT31;54434;50.096;20.082;2022-10-31T04:21:31;9.26;91.00
67641;SHT31;54434;50.096;20.082;2022-10-31T04:24:08;9.27;91.01
67641;SHT31;54434;50.096;20.082;2022-10-31T04:26:44;9.24;90.88
67641;SHT31;54434;50.096;20.082;2022-10-31T04:29:21;9.23;90.77
67641;SHT31;54434;50.096;20.082;2022-10-31T04:31:56;9.19;90.59
67641;SHT31;54434;50.096;20.082;2022-10-31T04:34:32;9.16;90.58
67641;SHT31;54434;50.096;20.082;2022-10-31T04:37:08;9.15;90.52
67641;SHT31;54434;50.096;20.082;2022-10-31T04:39:44;9.13;90.41
67641;SHT31;54434;50.096;20.082;2022-10-31T04:42:52;9.11;90.41
67641;SHT31;54434;50.096;20.082;2022-10-31T04:45:29;9.10;90.41
67641;SHT31;54434;50.096;20.082;2022-10-31T04:48:06;9.08;90.37
67641;SHT31;54434;50.096;20.082;2022-10-31T04:50:43;9.04;90.25
67641;SHT31;54434;50.096;20.082;2022-10-31T04:53:19;9.00;90.20
67641;SHT31;54434;50.096;20.082;2022-10-31T04:56:38;8.94;90.10
67641;SHT31;54434;50.096;20.082;2022-10-31T04:59:18;8.91;90.12
67641;SHT31;54434;50.096;20.082;2022-10-31T05:01:56;8.88;90.25
67641;SHT31;54434;50.096;20.082;2022-10-31T05:04:57;8.84;90.20
67641;SHT31;54434;50.096;20.082;2022-10-31T05:07:34;8.83;90.37
67641;SHT31;54434;50.096;20.082;2022-10-31T05:10:16;8.83;90.48
67641;SHT31;54434;50.096;20.082;2022-10-31T05:12:55;8.81;90.46
67641;SHT31;54434;50.096;20.082;2022-10-31T05:15:52;8.77;90.43
67641;SHT31;54434;50.096;20.082;2022-10-31T05:18:47;8.74;90.42
67641;SHT31;54434;50.096;20.082;2022-10-31T05:22:04;8.75;90.54
67641;SHT31;54434;50.096;20.082;2022-10-31T05:24:41;8.75;90.58
67641;SHT31;54434;50.096;20.082;2022-10-31T05:27:17;8.74;90.56
67641;SHT31;54434;50.096;20.082;2022-10-31T05:29:53;8.74;90.60
67641;SHT31;54434;50.096;20.082;2022-10-31T05:32:39;8.69;90.32
67641;SHT31;54434;50.096;20.082;2022-10-31T05:35:39;8.55;89.63
67641;SHT31;54434;50.096;20.082;2022-10-31T05:38:37;8.47;89.51
67641;SHT31;54434;50.096;20.082;2022-10-31T05:41:29;8.46;89.62
67641;SHT31;54434;50.096;20.082;2022-10-31T05:44:09;8.48;89.79
67641;SHT31;54434;50.096;20.082;2022-10-31T05:46:55;8.49;89.79
67641;SHT31;54434;50.096;20.082;2022-10-31T05:50:15;8.47;89.57
67641;SHT31;54434;50.096;20.082;2022-10-31T05:52:57;8.42;89.28
67641;SHT31;54434;50.096;20.082;2022-10-31T05:55:38;8.41;89.29
67641;SHT31;54434;50.096;20.082;2022-10-31T05:58:20;8.42;89.33
67641;SHT31;54434;50.096;20.082;2022-10-31T06:01:09;8.46;89.46
67641;SHT31;54434;50.096;20.082;2022-10-31T06:03:48;8.52;89.68
67641;SHT31;54434;50.096;20.082;2022-10-31T06:06:27;8.58;89.74
67641;SHT31;54434;50.096;20.082;2022-10-31T06:09:03;8.66;89.95
67641;SHT31;54434;50.096;20.082;2022-10-31T06:11:39;8.76;90.12
67641;SHT31;54434;50.096;20.082;2022-10-31T06:14:35;8.87;90.31
67641;SHT31;54434;50.096;20.082;2022-10-31T06:17:11;8.97;90.42
67641;SHT31;54434;50.096;20.082;2022-10-31T06:19:50;9.07;90.51
67641;SHT31;54434;50.096;20.082;2022-10-31T06:22:28;9.17;90.63
67641;SHT31;54434;50.096;20.082;2022-10-31T06:25:05;9.29;90.72
67641;SHT31;54434;50.096;20.082;2022-10-31T06:27:47;9.40;90.79
67641;SHT31;54434;50.096;20.082;2022-10-31T06:30:24;9.51;90.80
67641;SHT31;54434;50.096;20.082;2022-10-31T06:33:04;9.64;90.84
67641;SHT31;54434;50.096;20.082;2022-10-31T06:35:47;9.76;90.80
67641;SHT31;54434;50.096;20.082;2022-10-31T06:38:23;9.90;90.83
67641;SHT31;54434;50.096;20.082;2022-10-31T06:41:05;10.02;90.72
67641;SHT31;54434;50.096;20.082;2022-10-31T06:43:50;10.17;90.78
67641;SHT31;54434;50.096;20.082;2022-10-31T06:46:46;10.32;90.70
67641;SHT31;54434;50.096;20.082;2022-10-31T06:49:41;10.47;90.64
67641;SHT31;54434;50.096;20.082;2022-10-31T06:52:19;10.59;90.48
67641;SHT31;54434;50.096;20.082;2022-10-31T06:54:56;10.70;90.38
67641;SHT31;54434;50.096;20.082;2022-10-31T06:57:32;10.81;90.26
67641;SHT31;54434;50.096;20.082;2022-10-31T07:00:11;10.94;90.13
67641;SHT31;54434;50.096;20.082;2022-10-31T07:02:58;11.06;89.92
67641;SHT31;54434;50.096;20.082;2022-10-31T07:05:37;11.19;89.74
67641;SHT31;54434;50.096;20.082;2022-10-31T07:08:14;11.33;89.58
67641;SHT31;54434;50.096;20.082;2022-10-31T07:10:53;11.47;89.29
67641;SHT31;54434;50.096;20.082;2022-10-31T07:13:31;11.67;88.97
67641;SHT31;54434;50.096;20.082;2022-10-31T07:16:10;11.90;88.44
67641;SHT31;54434;50.096;20.082;2022-10-31T07:18:49;12.22;88.34
67641;SHT31;54434;50.096;20.082;2022-10-31T07:21:25;12.52;87.62
67641;SHT31;54434;50.096;20.082;2022-10-31T07:24:01;12.86;87.10
67641;SHT31;54434;50.096;20.082;2022-10-31T07:26:45;13.24;87.08
67641;SHT31;54434;50.096;20.082;2022-10-31T07:29:21;13.60;86.14
67641;SHT31;54434;50.096;20.082;2022-10-31T07:31:57;13.92;85.25
67641;SHT31;54434;50.096;20.082;2022-10-31T07:34:33;14.23;83.98
67641;SHT31;54434;50.096;20.082;2022-10-31T07:37:29;14.56;82.83
67641;SHT31;54434;50.096;20.082;2022-10-31T07:40:07;14.86;81.98
67641;SHT31;54434;50.096;20.082;2022-10-31T07:42:47;15.15;81.45
67641;SHT31;54434;50.096;20.082;2022-10-31T07:45:44;15.47;79.88
67641;SHT31;54434;50.096;20.082;2022-10-31T07:48:45;15.77;78.57
67641;SHT31;54434;50.096;20.082;2022-10-31T07:51:59;16.02;77.36
67641;SHT31;54434;50.096;20.082;2022-10-31T07:54:53;16.25;76.31
67641;SHT31;54434;50.096;20.082;2022-10-31T07:57:29;16.42;75.59
67641;SHT31;54434;50.096;20.082;2022-10-31T08:00:07;16.55;74.48
67641;SHT31;54434;50.096;20.082;2022-10-31T08:02:47;16.71;74.08
67641;SHT31;54434;50.096;20.082;2022-10-31T08:05:50;16.90;73.07
67641;SHT31;54434;50.096;20.082;2022-10-31T08:08:46;17.03;71.65
67641;SHT31;54434;50.096;20.082;2022-10-31T08:11:21;17.11;71.75
67641;SHT31;54434;50.096;20.082;2022-10-31T08:13:57;17.24;71.53
67641;SHT31;54434;50.096;20.082;2022-10-31T08:16:34;17.39;70.56
67641;SHT31;54434;50.096;20.082;2022-10-31T08:19:10;17.46;70.18
67641;SHT31;54434;50.096;20.082;2022-10-31T08:21:47;17.56;69.72
67641;SHT31;54434;50.096;20.082;2022-10-31T08:24:26;17.67;68.98
67641;SHT31;54434;50.096;20.082;2022-10-31T08:27:03;17.67;68.47
67641;SHT31;54434;50.096;20.082;2022-10-31T08:29:38;17.78;68.75
67641;SHT31;54434;50.096;20.082;2022-10-31T08:32:14;17.87;67.41
67641;SHT31;54434;50.096;20.082;2022-10-31T08:35:10;17.94;67.80
67641;SHT31;54434;50.096;20.082;2022-10-31T08:38:15;18.12;67.62
67641;SHT31;54434;50.096;20.082;2022-10-31T08:40:51;18.24;67.07
67641;SHT31;54434;50.096;20.082;2022-10-31T08:43:27;18.30;66.52
67641;SHT31;54434;50.096;20.082;2022-10-31T08:46:03;18.32;65.91
67641;SHT31;54434;50.096;20.082;2022-10-31T08:48:39;18.32;65.42
67641;SHT31;54434;50.096;20.082;2022-10-31T08:51:16;18.35;65.78
67641;SHT31;54434;50.096;20.082;2022-10-31T08:53:54;18.43;65.89
67641;SHT31;54434;50.096;20.082;2022-10-31T08:56:39;18.55;65.97
67641;SHT31;54434;50.096;20.082;2022-10-31T09:00:10;18.65;64.63
67641;SHT31;54434;50.096;20.082;2022-10-31T09:03:05;18.76;64.83
67641;SHT31;54434;50.096;20.082;2022-10-31T09:05:46;18.84;64.82
67641;SHT31;54434;50.096;20.082;2022-10-31T09:08:22;18.94;64.66
67641;SHT31;54434;50.096;20.082;2022-10-31T09:10:59;19.04;64.88
67641;SHT31;54434;50.096;20.082;2022-10-31T09:13:54;19.12;64.47
67641;SHT31;54434;50.096;20.082;2022-10-31T09:16:43;19.18;64.07
67641;SHT31;54434;50.096;20.082;2022-10-31T09:19:25;19.25;63.81
67641;SHT31;54434;50.096;20.082;2022-10-31T09:22:02;19.19;63.23
67641;SHT31;54434;50.096;20.082;2022-10-31T09:24:38;19.14;63.57
67641;SHT31;54434;50.096;20.082;2022-10-31T09:27:13;19.19;63.94
67641;SHT31;54434;50.096;20.082;2022-10-31T09:29:51;19.22;63.43
67641;SHT31;54434;50.096;20.082;2022-10-31T09:32:27;19.22;63.55
67641;SHT31;54434;50.096;20.082;2022-10-31T09:35:03;19.28;64.05
67641;SHT31;54434;50.096;20.082;2022-10-31T09:37:47;19.37;63.59
67641;SHT31;54434;50.096;20.082;2022-10-31T09:40:32;19.42;62.63
67641;SHT31;54434;50.096;20.082;2022-10-31T09:43:14;19.47;63.03
67641;SHT31;54434;50.096;20.082;2022-10-31T09:46:04;19.53;62.64
67641;SHT31;54434;50.096;20.082;2022-10-31T09:48:59;19.55;62.82
67641;SHT31;54434;50.096;20.082;2022-10-31T09:52:08;19.64;63.06
67641;SHT31;54434;50.096;20.082;2022-10-31T09:54:53;19.73;62.92
67641;SHT31;54434;50.096;20.082;2022-10-31T09:57:35;19.79;62.27
67641;SHT31;54434;50.096;20.082;2022-10-31T10:00:16;19.83;62.10
67641;SHT31;54434;50.096;20.082;2022-10-31T10:02:56;19.89;61.91
67641;SHT31;54434;50.096;20.082;2022-10-31T10:05:41;19.93;61.37
67641;SHT31;54434;50.096;20.082;2022-10-31T10:08:39;20.01;61.62
67641;SHT31;54434;50.096;20.082;2022-10-31T10:11:46;20.09;61.65
67641;SHT31;54434;50.096;20.082;2022-10-31T10:14:50;20.17;61.35
67641;SHT31;54434;50.096;20.082;2022-10-31T10:18:00;20.22;61.27
67641;SHT31;54434;50.096;20.082;2022-10-31T10:20:56;20.27;60.83
67641;SHT31;54434;50.096;20.082;2022-10-31T10:24:02;20.31;60.50
67641;SHT31;54434;50.096;20.082;2022-10-31T10:27:04;20.38;60.26
67641;SHT31;54434;50.096;20.082;2022-10-31T10:29:57;20.46;60.09
67641;SHT31;54434;50.096;20.082;2022-10-31T10:32:45;20.49;60.56
67641;SHT31;54434;50.096;20.082;2022-10-31T10:35:27;20.55;59.96
67641;SHT31;54434;50.096;20.082;2022-10-31T10:38:15;20.59;59.32
67641;SHT31;54434;50.096;20.082;2022-10-31T10:40:57;20.62;60.02
67641;SHT31;54434;50.096;20.082;2022-10-31T10:43:37;20.69;59.82
67641;SHT31;54434;50.096;20.082;2022-10-31T10:46:19;20.73;59.86
67641;SHT31;54434;50.096;20.082;2022-10-31T10:49:28;20.77;59.64
67641;SHT31;54434;50.096;20.082;2022-10-31T10:52:13;20.79;59.23
67641;SHT31;54434;50.096;20.082;2022-10-31T10:55:27;20.83;60.03
67641;SHT31;54434;50.096;20.082;2022-10-31T10:58:14;20.87;59.45
67641;SHT31;54434;50.096;20.082;2022-10-31T11:00:50;20.88;58.99
67641;SHT31;54434;50.096;20.082;2022-10-31T11:03:29;20.91;59.72
67641;SHT31;54434;50.096;20.082;2022-10-31T11:06:17;20.93;59.09
67641;SHT31;54434;50.096;20.082;2022-10-31T11:08:57;20.93;59.44
67641;SHT31;54434;50.096;20.082;2022-10-31T11:11:44;20.94;59.08
67641;SHT31;54434;50.096;20.082;2022-10-31T11:14:20;20.97;59.46
67641;SHT31;54434;50.096;20.082;2022-10-31T11:17:09;21.02;59.04
67641;SHT31;54434;50.096;20.082;2022-10-31T11:20:05;21.03;58.46
67641;SHT31;54434;50.096;20.082;2022-10-31T11:23:17;21.08;58.22
67641;SHT31;54434;50.096;20.082;2022-10-31T11:25:58;21.10;57.77
67641;SHT31;54434;50.096;20.082;2022-10-31T11:28:36;21.09;58.01
67641;SHT31;54434;50.096;20.082;2022-10-31T11:31:13;21.09;58.17
67641;SHT31;54434;50.096;20.082;2022-10-31T11:33:52;21.08;58.14
67641;SHT31;54434;50.096;20.082;2022-10-31T11:36:34;21.04;58.39
67641;SHT31;54434;50.096;20.082;2022-10-31T11:39:18;21.07;58.39
67641;SHT31;54434;50.096;20.082;2022-10-31T11:42:00;21.12;57.98
67641;SHT31;54434;50.096;20.082;2022-10-31T11:44:42;21.15;57.89
67641;SHT31;54434;50.096;20.082;2022-10-31T11:47:20;21.19;57.94
67641;SHT31;54434;50.096;20.082;2022-10-31T11:50:02;21.22;57.67
67641;SHT31;54434;50.096;20.082;2022-10-31T11:52:53;21.22;57.91
67641;SHT31;54434;50.096;20.082;2022-10-31T11:55:34;21.24;57.97
67641;SHT31;54434;50.096;20.082;2022-10-31T11:58:23;21.26;57.39
67641;SHT31;54434;50.096;20.082;2022-10-31T12:01:00;21.27;57.75
67641;SHT31;54434;50.096;20.082;2022-10-31T12:03:45;21.28;58.09
67641;SHT31;54434;50.096;20.082;2022-10-31T12:06:33;21.30;57.49
67641;SHT31;54434;50.096;20.082;2022-10-31T12:09:18;21.33;58.25
67641;SHT31;54434;50.096;20.082;2022-10-31T12:12:05;21.36;57.70
67641;SHT31;54434;50.096;20.082;2022-10-31T12:15:05;21.38;57.75
67641;SHT31;54434;50.096;20.082;2022-10-31T12:18:10;21.40;57.51
67641;SHT31;54434;50.096;20.082;2022-10-31T12:21:21;21.42;57.26
67641;SHT31;54434;50.096;20.082;2022-10-31T12:24:22;21.41;56.53
67641;SHT31;54434;50.096;20.082;2022-10-31T12:27:18;21.43;56.91
67641;SHT31;54434;50.096;20.082;2022-10-31T12:30:15;21.41;56.95
67641;SHT31;54434;50.096;20.082;2022-10-31T12:33:19;21.39;56.57
67641;SHT31;54434;50.096;20.082;2022-10-31T12:39:32;21.39;56.25
67641;SHT31;54434;50.096;20.082;2022-10-31T12:42:35;21.36;56.34
67641;SHT31;54434;50.096;20.082;2022-10-31T12:45:42;21.34;56.25
67641;SHT31;54434;50.096;20.082;2022-10-31T12:48:34;21.33;56.36
67641;SHT31;54434;50.096;20.082;2022-10-31T12:51:50;21.33;56.55
67641;SHT31;54434;50.096;20.082;2022-10-31T12:54:48;21.33;56.50
67641;SHT31;54434;50.096;20.082;2022-10-31T12:57:42;21.32;56.75
67641;SHT31;54434;50.096;20.082;2022-10-31T13:00:20;21.31;57.31
67641;SHT31;54434;50.096;20.082;2022-10-31T13:03:03;21.29;57.16
67641;SHT31;54434;50.096;20.082;2022-10-31T13:05:58;21.28;57.02
67641;SHT31;54434;50.096;20.082;2022-10-31T13:08:41;21.26;57.51
67641;SHT31;54434;50.096;20.082;2022-10-31T13:11:23;21.26;57.54
67641;SHT31;54434;50.096;20.082;2022-10-31T13:14:07;21.25;57.18
67641;SHT31;54434;50.096;20.082;2022-10-31T13:16:53;21.23;57.26
67641;SHT31;54434;50.096;20.082;2022-10-31T13:19:33;21.23;57.13
67641;SHT31;54434;50.096;20.082;2022-10-31T13:22:17;21.21;57.21
67641;SHT31;54434;50.096;20.082;2022-10-31T13:24:59;21.21;56.94
67641;SHT31;54434;50.096;20.082;2022-10-31T13:27:51;21.19;57.18
67641;SHT31;54434;50.096;20.082;2022-10-31T13:30:36;21.17;57.76
67641;SHT31;54434;50.096;20.082;2022-10-31T13:33:16;21.15;57.53
67641;SHT31;54434;50.096;20.082;2022-10-31T13:36:03;21.14;57.41
67641;SHT31;54434;50.096;20.082;2022-10-31T13:38:59;21.11;57.46
67641;SHT31;54434;50.096;20.082;2022-10-31T13:41:52;21.08;57.50
67641;SHT31;54434;50.096;20.082;2022-10-31T13:44:40;21.06;57.32
67641;SHT31;54434;50.096;20.082;2022-10-31T13:47:24;21.04;57.59
67641;SHT31;54434;50.096;20.082;2022-10-31T13:50:25;21.00;57.72
67641;SHT31;54434;50.096;20.082;2022-10-31T13:53:13;20.94;58.00
67641;SHT31;54434;50.096;20.082;2022-10-31T13:56:04;20.90;57.71
67641;SHT31;54434;50.096;20.082;2022-10-31T13:59:12;20.87;57.85
67641;SHT31;54434;50.096;20.082;2022-10-31T14:01:55;20.82;57.80
67641;SHT31;54434;50.096;20.082;2022-10-31T14:04:37;20.79;57.84
67641;SHT31;54434;50.096;20.082;2022-10-31T14:07:24;20.75;57.84
67641;SHT31;54434;50.096;20.082;2022-10-31T14:10:03;20.72;57.93
67641;SHT31;54434;50.096;20.082;2022-10-31T14:13:07;20.66;58.14
67641;SHT31;54434;50.096;20.082;2022-10-31T14:15:57;20.61;58.25
67641;SHT31;54434;50.096;20.082;2022-10-31T14:18:37;20.55;58.41
67641;SHT31;54434;50.096;20.082;2022-10-31T14:21:28;20.49;58.48
67641;SHT31;54434;50.096;20.082;2022-10-31T14:24:29;20.43;58.77
67641;SHT31;54434;50.096;20.082;2022-10-31T14:27:44;20.37;58.82
67641;SHT31;54434;50.096;20.082;2022-10-31T14:30:23;20.29;59.06
67641;SHT31;54434;50.096;20.082;2022-10-31T14:33:09;20.22;59.23
67641;SHT31;54434;50.096;20.082;2022-10-31T14:35:56;20.15;59.42
67641;SHT31;54434;50.096;20.082;2022-10-31T14:38:43;20.08;59.61
67641;SHT31;54434;50.096;20.082;2022-10-31T14:41:43;19.99;59.82
67641;SHT31;54434;50.096;20.082;2022-10-31T14:44:47;19.90;60.11
67641;SHT31;54434;50.096;20.082;2022-10-31T14:47:42;19.79;60.43
67641;SHT31;54434;50.096;20.082;2022-10-31T14:50:43;19.66;60.70
67641;SHT31;54434;50.096;20.082;2022-10-31T14:53:26;19.56;61.00
67641;SHT31;54434;50.096;20.082;2022-10-31T14:56:08;19.44;61.34
67641;SHT31;54434;50.096;20.082;2022-10-31T14:58:49;19.33;61.76
67641;SHT31;54434;50.096;20.082;2022-10-31T15:01:29;19.21;62.13
67641;SHT31;54434;50.096;20.082;2022-10-31T15:04:13;19.06;62.82
67641;SHT31;54434;50.096;20.082;2022-10-31T15:06:59;18.89;63.60
67641;SHT31;54434;50.096;20.082;2022-10-31T15:09:40;18.71;63.87
67641;SHT31;54434;50.096;20.082;2022-10-31T15:12:25;18.55;64.41
67641;SHT31;54434;50.096;20.082;2022-10-31T15:15:13;18.38;65.01
67641;SHT31;54434;50.096;20.082;2022-10-31T15:17:55;18.17;65.62
67641;SHT31;54434;50.096;20.082;2022-10-31T15:20:38;17.96;66.51
67641;SHT31;54434;50.096;20.082;2022-10-31T15:23:23;17.76;67.28
67641;SHT31;54434;50.096;20.082;2022-10-31T15:26:03;17.55;67.86
67641;SHT31;54434;50.096;20.082;2022-10-31T15:28:56;17.33;68.37
67641;SHT31;54434;50.096;20.082;2022-10-31T15:31:35;17.14;68.82
67641;SHT31;54434;50.096;20.082;2022-10-31T15:34:22;16.97;69.19
67641;SHT31;54434;50.096;20.082;2022-10-31T15:37:11;16.73;69.73
67641;SHT31;54434;50.096;20.082;2022-10-31T15:39:50;16.57;70.21
67641;SHT31;54434;50.096;20.082;2022-10-31T15:42:28;16.40;70.71
67641;SHT31;54434;50.096;20.082;2022-10-31T15:45:19;16.21;71.18
67641;SHT31;54434;50.096;20.082;2022-10-31T15:47:58;16.01;71.58
67641;SHT31;54434;50.096;20.082;2022-10-31T15:50:39;15.86;71.92
67641;SHT31;54434;50.096;20.082;2022-10-31T15:53:23;15.69;72.20
67641;SHT31;54434;50.096;20.082;2022-10-31T15:56:08;15.54;72.71
67641;SHT31;54434;50.096;20.082;2022-10-31T15:58:53;15.36;72.93
67641;SHT31;54434;50.096;20.082;2022-10-31T16:01:33;15.20;73.34
67641;SHT31;54434;50.096;20.082;2022-10-31T16:04:22;15.08;73.76
67641;SHT31;54434;50.096;20.082;2022-10-31T16:07:01;14.98;74.10
67641;SHT31;54434;50.096;20.082;2022-10-31T16:09:55;14.86;74.32
67641;SHT31;54434;50.096;20.082;2022-10-31T16:12:37;14.73;74.47
67641;SHT31;54434;50.096;20.082;2022-10-31T16:15:19;14.61;74.69
67641;SHT31;54434;50.096;20.082;2022-10-31T16:17:55;14.51;74.92
67641;SHT31;54434;50.096;20.082;2022-10-31T16:20:32;14.41;75.19
67641;SHT31;54434;50.096;20.082;2022-10-31T16:23:14;14.33;75.41
67641;SHT31;54434;50.096;20.082;2022-10-31T16:25:52;14.24;75.60
67641;SHT31;54434;50.096;20.082;2022-10-31T16:28:29;14.14;75.89
67641;SHT31;54434;50.096;20.082;2022-10-31T16:31:15;14.03;76.18
67641;SHT31;54434;50.096;20.082;2022-10-31T16:34:12;13.93;76.46
67641;SHT31;54434;50.096;20.082;2022-10-31T16:36:57;13.84;76.72
67641;SHT31;54434;50.096;20.082;2022-10-31T16:39:36;13.75;76.93
67641;SHT31;54434;50.096;20.082;2022-10-31T16:42:11;13.60;76.95
67641;SHT31;54434;50.096;20.082;2022-10-31T16:44:47;13.50;77.41
67641;SHT31;54434;50.096;20.082;2022-10-31T16:47:23;13.43;77.78
67641;SHT31;54434;50.096;20.082;2022-10-31T16:49:59;13.34;77.94
67641;SHT31;54434;50.096;20.082;2022-10-31T16:52:44;13.26;78.07
67641;SHT31;54434;50.096;20.082;2022-10-31T16:55:43;13.16;78.05
67641;SHT31;54434;50.096;20.082;2022-10-31T16:58:26;13.07;78.21
67641;SHT31;54434;50.096;20.082;2022-10-31T17:01:06;12.99;78.52
67641;SHT31;54434;50.096;20.082;2022-10-31T17:03:43;12.91;78.78
67641;SHT31;54434;50.096;20.082;2022-10-31T17:06:19;12.83;78.74
67641;SHT31;54434;50.096;20.082;2022-10-31T17:08:58;12.74;78.99
67641;SHT31;54434;50.096;20.082;2022-10-31T17:11:35;12.65;79.19
67641;SHT31;54434;50.096;20.082;2022-10-31T17:14:20;12.60;79.80
67641;SHT31;54434;50.096;20.082;2022-10-31T17:16:56;12.54;79.91
67641;SHT31;54434;50.096;20.082;2022-10-31T17:19:32;12.46;79.90